Time;durP1;ratioP1;P1;durP2;ratioP2;P2;SDS_P1;SDS_P2;PMS_P1;PMS_P2;Temp;Humidity;BMP_temperature;BMP_pressure;BME280_temperature;BME280_humidity;BME280_pressure;Samples;Min_cycle;Max_cycle;Signal;HPM_P1;HPM_P2
2022/01/22 00:00:48;;;;;;;5.50;2.28;;;;;;;-5.08;83.19;61487.25;6078545;23;20275;-75
2022/01/22 00:03:16;;;;;;;9.80;5.47;;;;;;;-5.11;81.69;61486.19;6082634;23;20172;-73
2022/01/22 00:05:43;;;;;;;5.82;4.15;;;;;;;-5.07;80.99;61488.28;6084878;23;20248;-74
2022/01/22 00:08:10;;;;;;;2.60;1.75;;;;;;;-5.06;81.07;61486.31;6080766;23;20404;-74
2022/01/22 00:10:41;;;;;;;2.15;1.88;;;;;;;-5.14;81.04;61483.63;6077673;23;20191;-74
2022/01/22 00:14:23;;;;;;;2.92;1.25;;;;;;;-5.12;79.74;61495.59;6078153;23;20189;-75
2022/01/22 00:15:56;;;;;;;1.77;1.65;;;;;;;-5.07;79.68;61488.28;6078347;23;20224;-74
2022/01/22 00:18:24;;;;;;;2.25;1.60;;;;;;;-5.11;79.38;61486.19;6077373;23;20176;-74
2022/01/22 00:20:51;;;;;;;1.50;1.40;;;;;;;-5.08;79.27;61484.28;6077189;23;20193;-73
2022/01/22 00:23:20;;;;;;;1.65;1.55;;;;;;;-5.06;79.43;61488.78;6078068;23;20173;-74
2022/01/22 00:25:47;;;;;;;2.05;1.50;;;;;;;-5.10;79.01;61482.75;6078211;23;20216;-74
2022/01/22 00:28:14;;;;;;;1.80;1.52;;;;;;;-5.06;79.15;61489.31;6077136;23;20172;-73
2022/01/22 00:30:41;;;;;;;1.10;1.02;;;;;;;-5.06;78.67;61491.28;6080028;23;20196;-73
2022/01/22 00:33:08;;;;;;;1.50;1.30;;;;;;;-5.12;79.36;61482.66;6078348;23;20172;-75
2022/01/22 00:35:36;;;;;;;2.95;1.70;;;;;;;-5.13;79.14;61484.13;6077831;23;20189;-74
2022/01/22 00:38:03;;;;;;;2.80;1.27;;;;;;;-5.17;79.83;61478.09;6077055;23;20216;-74
2022/01/22 00:40:30;;;;;;;1.30;1.10;;;;;;;-5.12;79.26;61480.19;6077040;23;20212;-75
2022/01/22 00:42:57;;;;;;;1.15;1.13;;;;;;;-5.15;79.39;61482.59;6078233;23;20177;-74
2022/01/22 00:45:24;;;;;;;2.10;1.35;;;;;;;-5.15;78.92;61482.59;6077391;23;20268;-74
2022/01/22 00:47:51;;;;;;;1.63;1.40;;;;;;;-5.09;78.57;61485.75;6076741;23;20405;-74
2022/01/22 00:50:21;;;;;;;4.72;1.55;;;;;;;-5.05;77.53;61497.75;6079848;23;20201;-74
2022/01/22 00:52:49;;;;;;;1.60;1.50;;;;;;;-5.10;77.29;61487.19;6078688;23;20181;-74
2022/01/22 00:55:16;;;;;;;0.82;0.82;;;;;;;-5.13;77.82;61484.66;6076533;23;20192;-74
2022/01/22 00:57:43;;;;;;;4.03;1.50;;;;;;;-5.13;78.34;61484.13;6076353;23;20181;-75
2022/01/22 01:00:12;;;;;;;1.27;1.25;;;;;;;-5.25;78.57;61472.41;6077752;23;20437;-74
2022/01/22 01:02:39;;;;;;;5.85;1.63;;;;;;;-5.16;78.18;61474.13;6078469;23;20169;-74
2022/01/22 01:05:09;;;;;;;1.25;1.20;;;;;;;-5.22;78.81;61470.50;6075714;23;20192;-74
2022/01/22 01:07:36;;;;;;;1.75;1.65;;;;;;;-5.20;79.53;61472.03;6077694;23;20229;-74
2022/01/22 01:10:06;;;;;;;4.47;2.53;;;;;;;-5.14;79.56;61478.66;6077479;23;20489;-74
2022/01/22 01:12:34;;;;;;;7.28;4.20;;;;;;;-5.14;79.55;61483.63;6078349;23;20177;-75
2022/01/22 01:15:14;;;;;;;4.97;2.95;;;;;;;-5.17;79.98;61480.06;6077967;23;20199;-74
2022/01/22 01:18:05;;;;;;;21.45;8.32;;;;;;;-5.18;80.33;61471.59;6079796;23;20180;-77
2022/01/22 01:34:20;;;;;;;2.13;1.35;;;;;;;-5.07;80.61;61480.31;6079234;23;20227;-75
2022/01/22 01:36:48;;;;;;;1.77;1.20;;;;;;;-5.02;80.00;61495.34;6079020;23;20177;-75
2022/01/22 01:39:19;;;;;;;6.57;1.17;;;;;;;-4.98;79.44;61499.94;6079148;23;20521;-75
2022/01/22 01:41:54;;;;;;;1.65;1.08;;;;;;;-5.02;79.68;61495.84;6079112;23;20224;-75
2022/01/22 01:44:21;;;;;;;1.95;1.75;;;;;;;-5.05;79.07;61489.81;6081067;23;20208;-74
2022/01/22 01:46:50;;;;;;;1.42;1.23;;;;;;;-4.95;79.12;61503.00;6079990;23;20379;-75
2022/01/22 01:49:17;;;;;;;1.45;1.35;;;;;;;-5.39;79.98;61455.16;6078547;23;20248;-75
2022/01/22 01:51:46;;;;;;;3.67;1.73;;;;;;;-5.00;79.05;61497.38;6079416;23;20172;-75
2022/01/22 01:54:27;;;;;;;1.63;0.90;;;;;;;-4.97;78.94;61500.44;6081369;23;20221;-74
2022/01/22 01:59:43;;;;;;;1.15;0.90;;;;;;;-5.00;78.77;61492.41;6079004;23;20215;-75
2022/01/22 02:02:12;;;;;;;2.28;1.35;;;;;;;-4.99;78.83;61493.44;6080381;23;20229;-74
2022/01/22 02:04:38;;;;;;;0.80;0.80;;;;;;;-4.92;78.85;61503.56;6079585;23;20256;-74
2022/01/22 02:07:06;;;;;;;2.28;1.80;;;;;;;-4.97;78.57;61500.44;6079299;23;20177;-74
2022/01/22 02:09:33;;;;;;;1.35;1.25;;;;;;;-4.98;78.67;61499.94;6078847;23;20192;-73
2022/01/22 02:12:07;;;;;;;3.13;1.30;;;;;;;-4.95;79.07;61503.00;6080112;23;20211;-74
2022/01/22 02:25:54;;;;;;;0.70;0.70;;;;;;;-4.97;77.85;61502.94;6026238;23;20209;-75
2022/01/22 02:28:21;;;;;;;4.70;1.13;;;;;;;-4.96;77.16;61501.47;6079177;23;20165;-74
2022/01/22 02:30:51;;;;;;;2.00;1.63;;;;;;;-4.83;77.13;61514.72;6078647;23;20378;-74
2022/01/22 02:33:29;;;;;;;2.90;2.00;;;;;;;-4.85;77.30;61512.69;6083115;23;20177;-74
2022/01/22 02:36:01;;;;;;;2.38;1.45;;;;;;;-4.90;76.14;61505.59;6083306;23;20212;-74
2022/01/22 02:38:36;;;;;;;0.95;0.88;;;;;;;-4.85;76.43;61508.22;6079985;23;20532;-74
2022/01/22 02:41:04;;;;;;;1.20;1.20;;;;;;;-5.01;75.89;61496.38;6078497;23;20212;-74
2022/01/22 02:43:32;;;;;;;2.65;1.08;;;;;;;-5.13;75.67;61479.69;6077354;23;20172;-75
2022/01/22 02:46:00;;;;;;;1.10;0.70;;;;;;;-5.19;75.60;61478.00;6078792;23;20196;-74
2022/01/22 02:48:27;;;;;;;1.63;0.93;;;;;;;-5.24;75.36;61472.91;6078696;23;20482;-74
2022/01/22 02:50:54;;;;;;;1.75;0.52;;;;;;;-5.26;75.47;61466.44;6077476;23;20232;-74
2022/01/22 02:53:21;;;;;;;2.15;1.42;;;;;;;-5.20;75.59;61469.56;6084317;23;20172;-73
2022/01/22 02:55:50;;;;;;;1.40;0.90;;;;;;;-5.21;75.68;61473.50;6080942;23;20197;-74
2022/01/22 02:58:17;;;;;;;1.02;0.95;;;;;;;-5.29;75.95;61465.34;6077380;23;20193;-74
2022/01/22 03:00:44;;;;;;;2.70;1.30;;;;;;;-5.20;75.26;61477.50;6078691;23;20208;-74
2022/01/22 03:03:11;;;;;;;1.25;1.15;;;;;;;-5.20;75.43;61477.00;6078443;23;20177;-74
2022/01/22 03:05:38;;;;;;;1.00;0.77;;;;;;;-5.22;75.33;61465.53;6078552;23;20229;-74
2022/01/22 03:08:08;;;;;;;2.75;1.27;;;;;;;-5.17;74.29;61480.56;6078736;23;20375;-74
2022/01/22 03:10:36;;;;;;;3.55;1.83;;;;;;;-5.18;74.16;61474.06;6078356;23;20196;-74
2022/01/22 03:13:51;;;;;;;1.10;0.98;;;;;;;-5.20;74.10;61475.03;6078700;23;20420;-74
2022/01/22 03:16:15;;;;;;;2.50;1.45;;;;;;;-5.15;73.42;61479.59;6076783;23;20539;-74
2022/01/22 03:18:50;;;;;;;1.02;1.02;;;;;;;-5.24;73.87;61467.94;6078346;23;20258;-74
2022/01/22 03:21:35;;;;;;;1.40;1.30;;;;;;;-5.26;74.24;61470.88;6077418;23;20204;-74
2022/01/22 03:29:35;;;;;;;2.97;1.70;;;;;;;-5.22;75.13;61470.00;6077326;23;20199;-74
2022/01/22 03:32:03;;;;;;;1.40;1.30;;;;;;;-5.17;75.62;61475.09;6078846;23;20176;-74
2022/01/22 03:34:36;;;;;;;1.02;1.02;;;;;;;-5.12;75.71;61483.19;6077766;23;20196;-73
2022/01/22 03:37:03;;;;;;;3.30;1.27;;;;;;;-5.12;74.64;61485.16;6077553;23;20413;-73
2022/01/22 03:39:30;;;;;;;2.03;1.02;;;;;;;-5.13;74.54;61481.66;6076738;23;20211;-75
2022/01/22 03:41:57;;;;;;;1.60;1.50;;;;;;;-5.18;73.95;61479.03;6078337;23;20184;-74
2022/01/22 03:44:23;;;;;;;1.40;1.30;;;;;;;-5.22;74.28;61474.94;6077512;23;20433;-74
2022/01/22 03:46:52;;;;;;;2.55;1.23;;;;;;;-5.25;74.83;61469.41;6077235;23;20173;-73
2022/01/22 03:49:18;;;;;;;1.38;1.20;;;;;;;-5.33;74.00;61463.75;6078135;23;20200;-74
2022/01/22 03:51:45;;;;;;;3.08;1.27;;;;;;;-5.26;72.87;61460.94;6077916;23;20169;-74
2022/01/22 03:54:12;;;;;;;4.07;1.13;;;;;;;-5.19;72.49;61476.03;6077163;23;20228;-75
2022/01/22 03:56:43;;;;;;;1.73;1.20;;;;;;;-5.20;72.04;61472.56;6077237;23;20177;-75
2022/01/22 03:59:10;;;;;;;1.60;1.50;;;;;;;-5.25;71.48;61466.94;6078377;23;20189;-74
2022/01/22 04:02:05;;;;;;;1.50;1.40;;;;;;;-5.18;71.13;61476.56;6076129;23;20204;-75
2022/01/22 04:04:37;;;;;;;0.65;0.65;;;;;;;-5.17;70.83;61483.03;6077820;23;20188;-74
2022/01/22 04:09:51;;;;;;;2.28;0.90;;;;;;;-5.08;71.01;61486.75;6077555;23;20199;-75
2022/01/22 04:12:26;;;;;;;1.70;0.85;;;;;;;-5.12;71.66;61485.66;6078826;23;20177;-74
2022/01/22 04:14:58;;;;;;;1.55;0.77;;;;;;;-4.98;72.01;61499.41;6077831;23;20259;-75
2022/01/22 04:24:47;;;;;;;1.30;1.10;;;;;;;-4.93;73.40;61504.53;6077134;23;20227;-76
2022/01/22 04:25:47;;;;;;;1.05;0.98;;;;;;;-4.99;72.83;61493.94;6077664;23;20503;-74
2022/01/22 04:28:14;;;;;;;1.33;0.90;;;;;;;-4.94;71.71;61501.53;6077409;23;20180;-75
2022/01/22 04:30:41;;;;;;;0.68;0.68;;;;;;;-4.98;71.62;61502.41;6076654;23;20193;-74
2022/01/22 04:33:08;;;;;;;0.45;0.45;;;;;;;-4.98;71.42;61496.94;6077022;23;20193;-75
2022/01/22 04:35:36;;;;;;;4.93;1.35;;;;;;;-4.91;72.01;61504.59;6077104;23;20197;-74
2022/01/22 04:38:03;;;;;;;4.10;1.20;;;;;;;-4.87;71.94;61511.16;6076926;23;20177;-74
2022/01/22 04:40:30;;;;;;;1.25;0.75;;;;;;;-4.77;71.17;61515.88;6076800;23;20208;-74
2022/01/22 04:42:57;;;;;;;1.95;1.00;;;;;;;-4.84;72.22;61511.72;6077356;23;20216;-74
2022/01/22 04:45:32;;;;;;;7.93;1.00;;;;;;;-4.96;73.30;61501.97;6076589;23;20211;-74
2022/01/22 04:48:13;;;;;;;2.33;0.68;;;;;;;-4.80;74.69;61515.81;6077289;23;20468;-74
2022/01/22 04:56:10;;;;;;;0.88;0.88;;;;;;;-4.94;76.67;61501.03;6077035;23;20208;-74
2022/01/22 04:58:37;;;;;;;1.10;0.95;;;;;;;-4.78;77.32;61512.38;6078732;23;20172;-74
2022/01/22 05:01:04;;;;;;;1.00;1.00;;;;;;;-4.72;75.52;61523.97;6078739;23;20213;-74
2022/01/22 05:03:31;;;;;;;0.38;0.38;;;;;;;-4.57;71.71;61531.31;6079742;23;20191;-74
2022/01/22 05:05:59;;;;;;;1.52;1.35;;;;;;;-4.61;69.58;61536.66;6081062;23;20212;-74
2022/01/22 05:08:26;;;;;;;1.20;1.08;;;;;;;-4.65;68.69;61530.09;6083451;23;20197;-74
2022/01/22 05:10:53;;;;;;;2.25;1.58;;;;;;;-4.64;69.15;61536.56;6083300;23;20189;-73
2022/01/22 05:13:19;;;;;;;1.60;1.50;;;;;;;-4.61;69.04;61534.69;6080664;23;20173;-75
2022/01/22 05:15:46;;;;;;;1.58;1.08;;;;;;;-4.80;71.78;61517.78;6079842;23;20422;-74
2022/01/22 05:18:13;;;;;;;1.58;1.38;;;;;;;-4.88;75.68;61505.16;6078984;23;20533;-73
2022/01/22 05:20:47;;;;;;;1.73;1.20;;;;;;;-4.73;75.96;61517.47;6080288;23;20209;-74
2022/01/22 05:23:18;;;;;;;1.25;1.15;;;;;;;-4.70;71.55;61527.97;6082013;23;20164;-73
2022/01/22 05:25:51;;;;;;;2.00;1.60;;;;;;;-4.61;70.03;61537.16;6081696;23;20193;-73
2022/01/22 05:28:49;;;;;;;1.23;0.52;;;;;;;-4.48;70.67;61544.94;6081070;23;20212;-74
2022/01/22 05:31:23;;;;;;;1.38;1.27;;;;;;;-4.52;71.46;61538.88;6082016;23;20201;-74
2022/01/22 05:39:21;;;;;;;1.55;1.45;;;;;;;-4.65;74.79;61533.09;6081089;23;20227;-73
2022/01/22 05:41:51;;;;;;;1.27;0.70;;;;;;;-4.65;75.46;61527.59;6085681;23;20207;-74
2022/01/22 05:44:19;;;;;;;2.47;1.00;;;;;;;-4.64;75.38;61528.63;6082587;23;20257;-74
2022/01/22 05:46:45;;;;;;;0.88;0.88;;;;;;;-4.72;77.42;61520.97;6080452;23;20178;-74
2022/01/22 05:49:12;;;;;;;7.82;1.00;;;;;;;-4.78;78.13;61514.88;6081512;23;20196;-74
2022/01/22 05:51:44;;;;;;;1.33;1.23;;;;;;;-4.81;78.63;61512.31;6080763;23;20400;-74
2022/01/22 05:59:42;;;;;;;0.77;0.63;;;;;;;-4.78;77.56;61520.31;6084290;23;20215;-73
2022/01/22 06:02:10;;;;;;;1.92;1.42;;;;;;;-4.77;78.29;61520.84;6080173;23;20205;-74
2022/01/22 06:04:38;;;;;;;1.13;1.13;;;;;;;-4.77;76.40;61518.88;6078646;23;20240;-74
2022/01/22 06:07:06;;;;;;;0.68;0.68;;;;;;;-4.74;74.60;61518.94;6079683;23;20173;-74
2022/01/22 06:09:33;;;;;;;1.00;1.00;;;;;;;-4.69;73.79;61530.97;6077398;23;20236;-73
2022/01/22 06:12:15;;;;;;;1.08;1.08;;;;;;;-4.58;80.19;61540.22;6078493;23;20216;-75
2022/01/22 06:14:44;;;;;;;1.08;1.08;;;;;;;-4.54;76.83;61541.81;6078725;23;20517;-74
2022/01/22 06:17:13;;;;;;;1.33;1.23;;;;;;;-4.54;77.41;61544.31;6080266;23;20427;-75
2022/01/22 06:19:39;;;;;;;0.95;0.90;;;;;;;-4.54;79.03;61539.34;6078970;23;20201;-74
2022/01/22 06:22:06;;;;;;;1.70;1.10;;;;;;;-4.62;79.73;61533.16;6077448;23;20209;-74
2022/01/22 06:24:33;;;;;;;1.25;1.25;;;;;;;-4.58;78.98;61540.22;6076292;23;20256;-73
2022/01/22 06:27:01;;;;;;;1.48;1.38;;;;;;;-4.58;79.63;61539.72;6075524;23;20240;-74
2022/01/22 06:29:28;;;;;;;1.38;1.25;;;;;;;-4.64;79.47;61531.13;6076063;23;20204;-73
2022/01/22 06:31:55;;;;;;;1.17;1.17;;;;;;;-4.71;80.04;61529.44;6077486;23;20180;-73
2022/01/22 06:34:22;;;;;;;1.55;1.13;;;;;;;-4.74;80.15;61526.91;6076951;23;20243;-73
2022/01/22 06:36:48;;;;;;;4.88;1.65;;;;;;;-4.79;79.46;61514.34;6077482;23;20176;-74
2022/01/22 06:39:17;;;;;;;1.42;1.33;;;;;;;-4.81;78.09;61514.28;6077472;23;20268;-74
2022/01/22 06:41:47;;;;;;;1.30;1.20;;;;;;;-4.88;77.12;61509.63;6078999;23;20416;-74
2022/01/22 06:44:18;;;;;;;1.25;1.13;;;;;;;-4.87;77.91;61513.63;6080939;23;20239;-75
2022/01/22 06:46:47;;;;;;;3.50;0.93;;;;;;;-4.83;76.59;61514.72;6078446;23;20169;-74
2022/01/22 06:49:14;;;;;;;1.25;1.20;;;;;;;-4.83;77.21;61505.31;6078417;23;20205;-74
2022/01/22 06:51:41;;;;;;;1.35;1.25;;;;;;;-4.81;77.19;61514.78;6079469;23;20517;-74
2022/01/22 06:54:10;;;;;;;2.22;1.55;;;;;;;-4.77;77.31;61521.34;6080419;23;20177;-74
2022/01/22 06:56:38;;;;;;;1.38;1.27;;;;;;;-4.79;76.00;61516.31;6083983;23;20592;-73
2022/01/22 06:59:08;;;;;;;1.48;1.10;;;;;;;-4.79;76.13;61518.81;6082580;23;20224;-74
2022/01/22 07:01:37;;;;;;;1.40;1.15;;;;;;;-4.74;75.68;61523.91;6080472;23;20271;-75
2022/01/22 07:04:04;;;;;;;0.88;0.88;;;;;;;-4.73;75.66;61524.94;6077711;23;20224;-74
2022/01/22 07:06:31;;;;;;;1.08;1.08;;;;;;;-4.61;75.62;61537.16;6078322;23;20181;-74
2022/01/22 07:08:58;;;;;;;1.35;1.33;;;;;;;-4.59;73.71;61536.72;6077875;23;20240;-74
2022/01/22 07:11:25;;;;;;;1.17;1.15;;;;;;;-4.63;72.78;61534.59;6076447;23;20229;-74
2022/01/22 07:13:52;;;;;;;12.23;5.85;;;;;;;-4.61;72.54;61532.19;6078448;23;20177;-74
2022/01/22 07:16:19;;;;;;;3.40;2.97;;;;;;;-4.53;71.42;61542.31;6077924;23;20187;-74
2022/01/22 07:18:47;;;;;;;2.42;2.15;;;;;;;-4.53;71.06;61547.28;6077942;23;20193;-75
2022/01/22 07:21:18;;;;;;;6.35;4.18;;;;;;;-4.61;71.99;61539.66;6078140;23;20204;-74
2022/01/22 07:26:34;;;;;;;2.03;1.90;;;;;;;-4.01;70.23;61590.94;6078213;23;20185;-74
2022/01/22 07:29:01;;;;;;;2.15;1.92;;;;;;;-3.71;68.76;61626.03;6077961;23;20374;-74
2022/01/22 07:31:28;;;;;;;1.40;1.35;;;;;;;-3.66;69.43;61628.63;6077635;23;20511;-74
2022/01/22 07:33:56;;;;;;;6.95;1.88;;;;;;;-3.72;70.41;61625.00;6077936;23;20180;-75
2022/01/22 07:36:23;;;;;;;2.80;1.05;;;;;;;-4.02;72.14;61592.38;6078136;23;20181;-73
2022/01/22 07:38:50;;;;;;;1.17;1.10;;;;;;;-3.84;72.68;61615.75;6078056;23;20493;-75
2022/01/22 07:41:18;;;;;;;1.15;0.93;;;;;;;-3.77;73.70;61622.38;6077164;23;20255;-74
2022/01/22 07:43:45;;;;;;;2.42;1.50;;;;;;;-3.68;73.38;61629.59;6077625;23;20237;-75
2022/01/22 07:46:12;;;;;;;1.40;1.30;;;;;;;-3.63;71.76;61636.66;6077471;23;20404;-74
2022/01/22 07:48:39;;;;;;;1.52;1.10;;;;;;;-3.85;74.06;61614.72;6075932;23;20216;-74
2022/01/22 07:51:07;;;;;;;1.38;1.33;;;;;;;-3.58;75.48;61636.81;6076349;23;20244;-74
2022/01/22 07:53:34;;;;;;;1.92;1.38;;;;;;;-3.68;73.73;61629.09;6076004;23;20169;-74
2022/01/22 07:56:01;;;;;;;0.95;0.95;;;;;;;-3.91;74.89;61605.59;6075833;23;20258;-74
2022/01/22 07:58:28;;;;;;;1.95;1.75;;;;;;;-3.70;72.24;61627.03;6076624;23;20241;-75
2022/01/22 08:00:55;;;;;;;2.35;1.33;;;;;;;-3.64;70.16;61635.63;6076478;23;20452;-74
2022/01/22 08:03:23;;;;;;;0.82;0.82;;;;;;;-3.70;67.09;61627.03;6075803;23;20177;-76
2022/01/22 08:05:50;;;;;;;1.50;0.98;;;;;;;-3.55;66.62;61637.38;6076206;23;20200;-76
2022/01/22 08:08:18;;;;;;;1.50;1.38;;;;;;;-3.55;66.85;61637.88;6102439;23;20255;-76
2022/01/22 08:10:45;;;;;;;1.73;1.27;;;;;;;-3.56;67.23;61643.81;6105112;23;20569;-76
2022/01/22 08:13:12;;;;;;;1.63;1.15;;;;;;;-3.49;68.06;61653.47;6106746;23;20178;-77
2022/01/22 08:15:40;;;;;;;2.35;1.40;;;;;;;-3.52;68.35;61645.44;6105668;23;20211;-75
2022/01/22 08:18:08;;;;;;;2.72;1.80;;;;;;;-3.58;66.28;61644.25;6106807;23;20223;-75
2022/01/22 08:20:35;;;;;;;1.63;1.52;;;;;;;-3.58;65.74;61641.78;6106776;23;20208;-73
2022/01/22 08:23:02;;;;;;;3.30;1.27;;;;;;;-3.62;62.76;61640.16;6107670;23;20247;-74
2022/01/22 08:25:31;;;;;;;1.20;1.20;;;;;;;-3.59;63.16;61635.78;6121330;23;20205;-75
2022/01/22 08:30:45;;;;;;;2.40;1.08;;;;;;;-3.52;61.54;61647.91;6134390;23;20206;-74
2022/01/22 08:33:34;;;;;;;0.90;0.90;;;;;;;-3.60;61.96;61637.75;6136907;23;20222;-75
2022/01/22 08:36:02;;;;;;;1.88;1.35;;;;;;;-3.46;63.13;61653.50;6136071;23;20222;-75
2022/01/22 08:38:31;;;;;;;0.75;0.75;;;;;;;-3.48;60.78;61651.97;6136920;23;20235;-75
2022/01/22 08:40:59;;;;;;;15.13;6.88;;;;;;;-3.50;62.06;61649.94;6135548;23;20219;-74
2022/01/22 08:43:28;;;;;;;1.70;1.60;;;;;;;-3.58;61.77;61642.28;6137695;23;20171;-74
2022/01/22 08:45:55;;;;;;;10.20;4.10;;;;;;;-3.59;63.14;61638.28;6138092;23;20197;-75
2022/01/22 08:48:23;;;;;;;3.72;2.65;;;;;;;-3.53;62.83;61639.94;6139016;23;20539;-74
2022/01/22 08:50:50;;;;;;;2.90;1.30;;;;;;;-3.63;62.83;61637.19;6140618;23;20388;-74
2022/01/22 08:53:17;;;;;;;0.90;0.90;;;;;;;-3.68;65.00;61626.59;6147617;23;20171;-74
2022/01/22 08:55:44;;;;;;;0.93;0.93;;;;;;;-3.59;65.30;61638.28;6145745;23;20187;-74
2022/01/22 08:58:12;;;;;;;1.40;1.00;;;;;;;-3.57;64.70;61637.81;6139628;23;20179;-74
2022/01/22 09:00:39;;;;;;;1.75;1.65;;;;;;;-3.55;64.94;61635.41;6138321;23;20195;-74
2022/01/22 09:03:06;;;;;;;1.75;1.60;;;;;;;-3.50;66.70;61642.47;6137635;23;20262;-74
2022/01/22 09:05:36;;;;;;;0.88;0.88;;;;;;;-3.39;65.31;61653.19;6136246;23;20247;-75
2022/01/22 09:08:04;;;;;;;3.30;1.73;;;;;;;-3.42;66.42;61657.59;6136625;23;20168;-75
2022/01/22 09:10:31;;;;;;;3.25;2.25;;;;;;;-3.45;66.50;61655.03;6136949;23;20239;-74
2022/01/22 09:12:58;;;;;;;8.77;3.35;;;;;;;-3.50;66.87;61646.97;6137442;23;20180;-75
2022/01/22 09:15:26;;;;;;;9.75;1.67;;;;;;;-3.42;67.32;61652.63;6136607;23;20198;-74
2022/01/22 09:17:53;;;;;;;1.40;1.30;;;;;;;-3.31;65.98;61668.84;6137177;23;20175;-73
2022/01/22 09:20:42;;;;;;;1.00;1.00;;;;;;;-3.24;68.13;61675.97;6137352;23;20195;-74
2022/01/22 09:23:10;;;;;;;15.18;4.93;;;;;;;-3.24;66.42;61676.50;6137433;23;20196;-74
2022/01/22 09:25:38;;;;;;;15.70;3.95;;;;;;;-3.04;65.46;61698.91;6136575;23;20199;-74
2022/01/22 09:28:07;;;;;;;1.67;1.58;;;;;;;-3.24;67.24;61668.50;6137114;23;20211;-76
2022/01/22 09:30:36;;;;;;;2.58;1.75;;;;;;;-3.21;69.72;61669.59;6136907;23;20192;-75
2022/01/22 09:33:03;;;;;;;3.58;2.35;;;;;;;-3.09;66.44;61693.81;6136754;23;20210;-75
2022/01/22 09:35:30;;;;;;;1.80;1.70;;;;;;;-3.03;65.56;61692.47;6137321;23;20222;-73
2022/01/22 09:37:57;;;;;;;6.35;2.00;;;;;;;-3.17;64.97;61683.13;6136674;23;20242;-75
2022/01/22 09:40:25;;;;;;;5.63;2.38;;;;;;;-3.32;64.28;61660.88;6142923;23;20187;-74
2022/01/22 09:42:52;;;;;;;4.00;2.17;;;;;;;-3.47;66.88;61652.50;6137398;23;20207;-77
2022/01/22 09:45:21;;;;;;;1.67;1.58;;;;;;;-3.58;65.98;61637.31;6136628;23;20211;-76
2022/01/22 09:47:50;;;;;;;1.55;1.38;;;;;;;-3.56;68.38;61639.38;6137212;23;20178;-75
2022/01/22 09:50:18;;;;;;;1.65;1.55;;;;;;;-3.52;65.19;61638.47;6136810;23;20422;-75
2022/01/22 09:52:47;;;;;;;1.52;1.42;;;;;;;-3.44;62.38;61656.06;6139108;23;20361;-74
2022/01/22 09:55:14;;;;;;;2.55;0.90;;;;;;;-3.54;61.90;61640.91;6138806;23;20519;-74
2022/01/22 09:57:41;;;;;;;3.13;1.85;;;;;;;-3.47;61.26;61650.53;6137824;23;20183;-75
2022/01/22 10:00:11;;;;;;;2.13;2.03;;;;;;;-3.35;62.80;61660.28;6137741;23;20191;-75
2022/01/22 10:02:41;;;;;;;1.85;1.05;;;;;;;-3.40;61.26;61660.16;6136779;23;20246;-74
2022/01/22 10:05:27;;;;;;;2.25;1.30;;;;;;;-3.20;60.72;61672.59;6137261;23;20196;-74
2022/01/22 10:07:54;;;;;;;3.42;1.08;;;;;;;-3.19;59.95;61678.63;6137138;23;20194;-74
2022/01/22 10:10:21;;;;;;;1.20;1.20;;;;;;;-3.34;59.62;61665.78;6136821;23;20275;-74
2022/01/22 10:12:52;;;;;;;1.90;1.30;;;;;;;-3.23;61.51;61679.50;6137518;23;20613;-74
2022/01/22 10:15:20;;;;;;;1.45;1.35;;;;;;;-3.20;62.64;61680.06;6137023;23;20242;-74
2022/01/22 10:17:50;;;;;;;1.13;1.00;;;;;;;-3.15;59.88;61680.72;6135915;23;20171;-74
2022/01/22 10:20:30;;;;;;;2.53;1.05;;;;;;;-3.10;58.85;61690.81;6135953;23;20203;-74
2022/01/22 10:23:00;;;;;;;1.60;1.10;;;;;;;-2.80;55.57;61720.94;6135917;23;20369;-74
2022/01/22 10:25:32;;;;;;;4.13;1.60;;;;;;;-2.64;54.87;61735.31;6137529;23;20205;-74
2022/01/22 10:28:00;;;;;;;1.50;1.40;;;;;;;-2.36;55.02;61755.94;6137185;23;20171;-74
2022/01/22 10:30:35;;;;;;;3.42;1.55;;;;;;;-2.27;54.92;61774.59;6138230;23;20195;-75
2022/01/22 10:33:08;;;;;;;2.15;1.40;;;;;;;-2.27;52.58;61770.13;6137694;23;20393;-75
2022/01/22 10:35:36;;;;;;;3.13;1.48;;;;;;;-2.22;53.52;61774.72;6136340;23;20191;-75
2022/01/22 10:38:05;;;;;;;2.58;1.88;;;;;;;-2.13;55.01;61781.44;6136805;23;20171;-75
2022/01/22 10:40:34;;;;;;;2.60;1.55;;;;;;;-2.20;56.49;61774.81;6137420;23;20191;-74
2022/01/22 10:43:12;;;;;;;1.58;1.48;;;;;;;-2.65;57.74;61729.31;6137515;23;20231;-75
2022/01/22 10:45:41;;;;;;;1.85;1.75;;;;;;;-2.51;57.83;61751.09;6136193;23;20231;-75
2022/01/22 10:48:16;;;;;;;2.85;1.92;;;;;;;-2.51;57.29;61745.59;6135965;23;20488;-74
2022/01/22 10:50:45;;;;;;;1.42;1.33;;;;;;;-2.74;55.35;61724.59;6137130;23;20191;-74
2022/01/22 10:53:12;;;;;;;1.40;1.38;;;;;;;-2.65;54.42;61734.31;6136096;23;20164;-74
2022/01/22 10:56:00;;;;;;;1.35;0.98;;;;;;;-2.81;54.98;61719.91;6136385;23;20195;-75
2022/01/22 10:58:28;;;;;;;1.95;1.77;;;;;;;-2.65;56.26;61736.28;6136500;23;20166;-75
2022/01/22 11:01:05;;;;;;;3.58;1.55;;;;;;;-2.52;54.22;61747.59;6137358;23;20592;-76
2022/01/22 11:03:33;;;;;;;0.65;0.57;;;;;;;-2.53;54.73;61743.56;6136379;23;20179;-75
2022/01/22 11:06:06;;;;;;;0.95;0.95;;;;;;;-2.50;54.95;61744.13;6136633;23;20195;-74
2022/01/22 11:08:33;;;;;;;2.13;1.60;;;;;;;-2.39;55.82;61762.84;6136607;23;20171;-75
2022/01/22 11:11:00;;;;;;;0.80;0.80;;;;;;;-2.43;56.31;61753.78;6135553;23;20238;-76
2022/01/22 11:13:27;;;;;;;1.75;1.60;;;;;;;-2.34;56.08;61760.50;6136585;23;20217;-75
2022/01/22 11:15:55;;;;;;;1.30;1.25;;;;;;;-2.26;55.23;61768.16;6136477;23;20187;-74
2022/01/22 11:18:23;;;;;;;1.00;1.00;;;;;;;-2.19;54.62;61783.31;6136431;23;20231;-74
2022/01/22 11:20:53;;;;;;;1.80;1.42;;;;;;;-2.02;55.82;61795.19;6137320;23;20187;-75
2022/01/22 11:23:22;;;;;;;2.40;1.70;;;;;;;-2.37;58.62;61762.41;6135699;23;20403;-74
2022/01/22 11:25:50;;;;;;;1.45;1.35;;;;;;;-2.21;56.70;61781.28;6137164;23;20259;-74
2022/01/22 11:28:19;;;;;;;3.08;1.38;;;;;;;-2.01;55.82;61799.22;6136162;23;20172;-75
2022/01/22 11:30:49;;;;;;;2.60;1.55;;;;;;;-1.79;55.88;61814.25;6136721;23;20203;-76
2022/01/22 11:33:18;;;;;;;2.90;1.63;;;;;;;-1.50;55.42;61848.41;6138787;23;20197;-75
2022/01/22 11:35:54;;;;;;;2.15;1.55;;;;;;;-1.40;54.67;61856.13;6136421;23;20198;-76
2022/01/22 11:38:29;;;;;;;1.55;1.40;;;;;;;-1.55;56.40;61848.78;6136668;23;20366;-75
2022/01/22 11:41:13;;;;;;;2.55;1.30;;;;;;;-1.46;55.18;61849.97;6137214;23;20198;-74
2022/01/22 11:44:02;;;;;;;1.90;1.80;;;;;;;-1.50;55.51;61843.91;6136556;23;20500;-75
2022/01/22 11:46:33;;;;;;;2.22;1.83;;;;;;;-1.33;55.61;61866.28;6136271;23;20227;-74
2022/01/22 11:49:18;;;;;;;1.50;1.42;;;;;;;-1.24;54.97;61875.50;6135980;23;20178;-75
2022/01/22 11:51:47;;;;;;;1.80;1.65;;;;;;;-1.56;56.42;61839.75;6136833;23;20195;-75
2022/01/22 11:54:17;;;;;;;1.83;1.73;;;;;;;-1.70;57.22;61822.94;6138219;23;20366;-75
2022/01/22 11:56:48;;;;;;;6.70;1.88;;;;;;;-1.63;57.36;61837.59;6137541;23;20231;-76
2022/01/22 11:59:30;;;;;;;2.03;1.88;;;;;;;-1.52;56.96;61843.84;6143258;23;20531;-75
2022/01/22 12:02:07;;;;;;;2.03;1.58;;;;;;;-1.65;58.70;61831.06;6142200;23;20504;-75
2022/01/22 12:05:01;;;;;;;1.48;1.38;;;;;;;-1.82;60.79;61813.66;6139059;23;20215;-75
2022/01/22 12:07:29;;;;;;;2.10;1.67;;;;;;;-1.74;61.35;61821.31;6137912;23;20175;-75
2022/01/22 12:16:08;;;;;;;1.95;1.85;;;;;;;-2.03;64.80;61794.69;6135677;23;20194;-75
2022/01/22 12:18:39;;;;;;;4.53;1.52;;;;;;;-1.89;65.51;61818.47;6135395;23;20190;-75
2022/01/22 12:23:56;;;;;;;1.88;1.70;;;;;;;-1.92;67.98;61815.91;6135437;23;20194;-75
2022/01/22 12:26:57;;;;;;;1.42;1.38;;;;;;;-2.00;70.65;61799.75;6136748;23;20226;-75
2022/01/22 12:29:38;;;;;;;4.97;1.98;;;;;;;-2.04;73.42;61793.66;6135962;23;20195;-74
2022/01/22 12:32:23;;;;;;;2.05;1.77;;;;;;;-1.93;75.36;61807.41;6136942;23;20251;-75
2022/01/22 12:35:09;;;;;;;3.83;2.63;;;;;;;-1.81;74.99;61822.16;6135622;23;20191;-75
2022/01/22 12:37:48;;;;;;;2.65;2.25;;;;;;;-2.06;77.45;61789.13;6136362;23;20464;-76
2022/01/22 12:40:28;;;;;;;1.30;1.30;;;;;;;-2.06;79.32;61788.59;6137149;23;20199;-76
2022/01/22 12:43:11;;;;;;;3.55;2.42;;;;;;;-2.40;84.34;61756.84;6137124;23;20213;-75
2022/01/22 12:45:41;;;;;;;1.73;1.63;;;;;;;-1.96;80.13;61798.84;6135961;23;20205;-75
2022/01/22 12:48:08;;;;;;;2.22;2.03;;;;;;;-1.86;75.16;61809.56;6136585;23;20164;-75
2022/01/22 12:50:37;;;;;;;1.70;1.60;;;;;;;-1.81;73.07;61811.69;6136040;23;20258;-76
2022/01/22 12:53:18;;;;;;;2.13;2.03;;;;;;;-2.30;72.88;61761.56;6137072;23;20172;-75
2022/01/22 12:58:41;;;;;;;2.22;2.03;;;;;;;-2.18;76.67;61776.34;6135891;23;20186;-75
2022/01/22 13:01:19;;;;;;;4.22;2.35;;;;;;;-2.07;76.54;61787.59;6134537;23;20203;-76
2022/01/22 13:03:49;;;;;;;2.63;1.60;;;;;;;-2.15;78.33;61781.91;6135000;23;20508;-76